Terminal Aerodrome Forecast
Issued by NWS

Home | Current Version | Previous Version | Text Only | Print | Product List | Glossary On
Versions: 1 2 3 4 5 6 7 8 9 10 11 12 13 14 15 16 17 18 19 20 21
000
FTUS46 KMTR 062300
TAFSTS
TAF
KSTS 062338Z 0700/0724 16006KT P6SM SCT060
     FM070300 30006KT P6SM SKC
     FM070800 00000KT P6SM SKC
     FM071900 31008KT P6SM SKC
     FM072100 20008KT P6SM SKC=

USA.gov is the U.S. government's official web portal to all federal, state and local government web resources and services.